Time;durP1;ratioP1;P1;durP2;ratioP2;P2;SDS_P1;SDS_P2;PMS_P1;PMS_P2;Temp;Humidity;BMP_temperature;BMP_pressure;BME280_temperature;BME280_humidity;BME280_pressure;Samples;Min_cycle;Max_cycle;Signal;HPM_P1;HPM_P2
2021/06/28 00:01:23;;;;;;;13.67;9.53;;;;;;;14.89;88.66;101406.69;4972524;28;20561;-66
2021/06/28 00:03:49;;;;;;;14.57;10.17;;;;;;;14.88;88.51;101405.88;4972512;28;20367;-66
2021/06/28 00:06:15;;;;;;;12.03;9.27;;;;;;;14.82;88.72;101405.72;4972125;28;20450;-66
2021/06/28 00:08:40;;;;;;;12.23;9.75;;;;;;;14.77;88.65;101393.66;4971340;28;20034;-66
2021/06/28 00:11:07;;;;;;;12.77;9.55;;;;;;;14.71;88.56;101394.34;4971470;28;20521;-66
2021/06/28 00:13:33;;;;;;;11.40;8.55;;;;;;;14.71;88.62;101393.53;4972361;28;20835;-66
2021/06/28 00:15:59;;;;;;;12.25;9.55;;;;;;;14.73;89.06;101391.50;4971005;28;20504;-66
2021/06/28 00:18:24;;;;;;;12.77;9.87;;;;;;;14.76;88.70;101391.16;4972335;28;20039;-66
2021/06/28 00:20:50;;;;;;;10.03;8.90;;;;;;;14.73;88.35;101396.88;4972237;28;20092;-66
2021/06/28 00:23:16;;;;;;;9.93;8.70;;;;;;;14.71;88.69;101397.03;4971248;28;20046;-66
2021/06/28 00:25:42;;;;;;;15.35;10.30;;;;;;;14.71;89.27;101397.03;4972186;28;20034;-66
2021/06/28 00:28:08;;;;;;;12.37;9.40;;;;;;;14.66;88.73;101404.78;4971923;28;20039;-66
2021/06/28 00:30:39;;;;;;;13.20;9.68;;;;;;;14.64;88.32;101401.44;4972085;28;20089;-66
2021/06/28 00:33:06;;;;;;;11.38;9.25;;;;;;;14.61;88.21;101398.25;4972036;28;20539;-66
2021/06/28 00:35:31;;;;;;;12.75;8.93;;;;;;;14.54;87.44;101392.75;4971802;28;20078;-66
2021/06/28 00:37:56;;;;;;;12.50;9.40;;;;;;;14.52;87.91;101389.38;4970802;28;20082;-66
2021/06/28 00:40:22;;;;;;;11.07;8.67;;;;;;;14.54;87.93;101388.22;4954985;28;20092;-66
2021/06/28 00:42:48;;;;;;;9.97;8.30;;;;;;;14.54;87.89;101392.75;4970567;28;20573;-66
2021/06/28 00:45:26;;;;;;;10.75;9.02;;;;;;;14.53;88.11;101393.72;4971809;28;20700;-66
2021/06/28 00:47:54;;;;;;;11.32;9.10;;;;;;;14.49;88.23;101393.22;4971559;28;20039;-66
2021/06/28 00:50:21;;;;;;;10.30;8.32;;;;;;;14.42;87.67;101388.69;4971664;28;20475;-66
2021/06/28 00:52:49;;;;;;;12.75;8.52;;;;;;;14.43;88.37;101383.16;4970757;28;20460;-66
2021/06/28 00:55:15;;;;;;;11.45;9.38;;;;;;;14.40;88.52;101380.84;4971547;28;20035;-66
2021/06/28 00:57:40;;;;;;;13.30;8.75;;;;;;;14.40;88.61;101390.72;4971412;28;20042;-66
2021/06/28 01:00:08;;;;;;;10.57;8.37;;;;;;;14.40;88.30;101380.84;4970778;28;20459;-66
2021/06/28 01:02:34;;;;;;;13.48;9.05;;;;;;;14.39;87.94;101379.13;4971578;28;20038;-66
2021/06/28 01:04:59;;;;;;;10.90;9.40;;;;;;;14.35;88.63;101386.72;4971441;28;20045;-66
2021/06/28 01:07:24;;;;;;;15.20;10.33;;;;;;;14.35;88.78;101389.41;4970207;28;20081;-66
2021/06/28 01:09:50;;;;;;;13.13;10.23;;;;;;;14.32;89.92;101384.34;4971494;28;20054;-66
2021/06/28 01:12:15;;;;;;;13.13;9.47;;;;;;;14.28;90.94;101383.03;4971432;28;20070;-66
2021/06/28 01:14:41;;;;;;;11.93;8.83;;;;;;;14.31;90.98;101388.06;4971300;28;20057;-66
2021/06/28 01:17:07;;;;;;;12.80;10.23;;;;;;;14.29;90.53;101381.19;4971021;28;20053;-66
2021/06/28 01:19:37;;;;;;;11.63;9.35;;;;;;;14.26;90.04;101385.06;4970340;28;20126;-66
2021/06/28 01:22:05;;;;;;;12.40;10.05;;;;;;;14.25;90.00;101378.00;4971236;28;20130;-66
2021/06/28 01:24:31;;;;;;;12.07;9.27;;;;;;;14.20;89.58;101379.53;4971295;28;20039;-66
2021/06/28 01:26:56;;;;;;;11.63;8.40;;;;;;;14.15;89.21;101374.66;4970985;28;20034;-66
2021/06/28 01:29:22;;;;;;;13.33;9.23;;;;;;;14.10;88.83;101382.41;4971308;28;20932;-66
2021/06/28 01:31:47;;;;;;;12.63;9.60;;;;;;;14.03;89.14;101378.72;4970210;28;20039;-66
2021/06/28 01:34:12;;;;;;;11.43;8.20;;;;;;;14.02;89.87;101379.72;4970171;28;20476;-66
2021/06/28 01:36:38;;;;;;;14.53;9.97;;;;;;;14.02;90.76;101383.22;4970747;28;20047;-66
2021/06/28 01:39:04;;;;;;;13.37;9.43;;;;;;;14.01;90.51;101383.41;4970088;28;20043;-66
2021/06/28 01:41:29;;;;;;;14.93;10.88;;;;;;;14.04;90.48;101375.03;4970014;28;20041;-66
2021/06/28 01:43:55;;;;;;;11.70;8.77;;;;;;;14.02;90.01;101379.72;4970973;28;20039;-66
2021/06/28 01:46:20;;;;;;;13.90;9.83;;;;;;;14.00;90.22;101374.53;4970630;28;20467;-66
2021/06/28 01:48:46;;;;;;;10.80;8.50;;;;;;;13.99;89.66;101374.69;4969854;28;20051;-66
2021/06/28 01:51:11;;;;;;;11.37;9.00;;;;;;;13.99;89.59;101374.69;4970858;28;20101;-66
2021/06/28 01:53:40;;;;;;;14.30;9.23;;;;;;;13.95;89.28;101382.22;4969611;28;20686;-66
2021/06/28 01:56:06;;;;;;;9.75;8.05;;;;;;;13.96;89.56;101373.19;4969480;28;20125;-66
2021/06/28 01:58:35;;;;;;;10.93;8.63;;;;;;;13.97;89.64;101376.72;4970760;28;20613;-66
2021/06/28 02:01:01;;;;;;;17.33;11.00;;;;;;;13.99;90.87;101378.22;4970586;28;20080;-66
2021/06/28 02:03:26;;;;;;;;;;;;;;;13.97;91.09;101377.53;4969912;28;20046;-66
2021/06/28 02:05:56;;;;;;;;;;;;;;;13.94;90.87;101377.88;4970032;28;19914;-66
2021/06/28 02:08:24;;;;;;;12.18;9.38;;;;;;;13.89;90.89;101373.03;4970699;28;20284;-66
2021/06/28 02:10:52;;;;;;;12.70;9.75;;;;;;;13.85;90.33;101381.59;4970609;28;20107;-66
2021/06/28 02:13:19;;;;;;;13.48;10.45;;;;;;;13.83;90.39;101384.41;4969672;28;20081;-66
2021/06/28 02:15:45;;;;;;;16.02;10.07;;;;;;;13.79;90.15;101376.88;4970230;28;20054;-66
2021/06/28 02:18:11;;;;;;;15.30;11.30;;;;;;;13.78;91.41;101384.09;4969271;28;20099;-66
2021/06/28 02:20:37;;;;;;;12.93;9.97;;;;;;;13.82;91.59;101374.72;4969440;28;20046;-66
2021/06/28 02:23:16;;;;;;;12.65;9.30;;;;;;;13.73;90.62;101370.34;4970469;28;20073;-66
2021/06/28 02:25:42;;;;;;;12.60;9.15;;;;;;;13.72;90.45;101368.69;4969424;28;20441;-66
2021/06/28 02:28:07;;;;;;;13.43;10.30;;;;;;;13.75;90.70;101359.47;4970011;28;20052;-66
2021/06/28 02:30:32;;;;;;;13.40;9.13;;;;;;;13.71;90.77;101361.63;4953229;28;20038;-66
2021/06/28 02:32:58;;;;;;;14.83;10.17;;;;;;;13.72;90.94;101363.31;4969427;28;20066;-66
2021/06/28 02:35:23;;;;;;;13.40;9.90;;;;;;;13.71;90.75;101364.31;4970172;28;20398;-66
2021/06/28 02:37:48;;;;;;;15.07;11.27;;;;;;;13.72;90.88;101360.63;4969931;28;20345;-66
2021/06/28 02:40:14;;;;;;;12.40;9.10;;;;;;;13.73;90.79;101359.63;4970271;28;20467;-66
2021/06/28 02:42:40;;;;;;;12.93;9.10;;;;;;;13.75;90.76;101365.66;4968962;28;20031;-66
2021/06/28 02:45:08;;;;;;;17.48;11.32;;;;;;;13.77;90.74;101373.56;4969954;28;20053;-66
2021/06/28 02:47:34;;;;;;;14.18;10.60;;;;;;;13.80;91.14;101363.28;4968776;28;20121;-66
2021/06/28 02:49:59;;;;;;;14.77;10.40;;;;;;;13.78;90.68;101364.47;4969063;28;20134;-66
2021/06/28 02:52:24;;;;;;;16.30;10.60;;;;;;;13.75;90.56;101360.28;4970039;28;20062;-66
2021/06/28 02:54:49;;;;;;;15.47;11.57;;;;;;;13.73;90.77;101357.75;4969835;28;20563;-66
2021/06/28 02:57:15;;;;;;;16.20;11.33;;;;;;;13.71;90.96;101356.25;4968652;28;20402;-66
2021/06/28 02:59:40;;;;;;;16.77;11.80;;;;;;;13.70;91.24;101357.28;4969868;28;20399;-66
2021/06/28 03:02:06;;;;;;;14.80;10.67;;;;;;;13.66;91.37;101362.13;4969886;28;20065;-66
2021/06/28 03:04:31;;;;;;;14.87;10.80;;;;;;;13.65;91.20;101348.88;4968958;28;20069;-66
2021/06/28 03:06:56;;;;;;;14.03;10.43;;;;;;;13.65;91.15;101349.72;4967780;28;20124;-66
2021/06/28 03:09:22;;;;;;;16.73;10.73;;;;;;;13.70;91.29;101354.59;4968875;28;20038;-66
2021/06/28 03:11:47;;;;;;;15.17;10.23;;;;;;;13.71;91.05;101356.25;4968884;28;20066;-66
2021/06/28 03:14:12;;;;;;;14.97;10.30;;;;;;;13.73;90.99;101349.72;4968633;28;20042;-66
2021/06/28 03:16:37;;;;;;;17.20;12.47;;;;;;;13.72;90.98;101352.59;4968532;28;20096;-66
2021/06/28 03:19:03;;;;;;;14.17;10.57;;;;;;;13.73;91.00;101356.94;4969732;28;20034;-66
2021/06/28 03:21:28;;;;;;;15.87;11.17;;;;;;;13.76;91.18;101356.59;4969622;28;20037;-66
2021/06/28 03:23:53;;;;;;;19.47;12.70;;;;;;;13.76;90.89;101347.69;4952559;28;20039;-66
2021/06/28 03:26:19;;;;;;;16.73;10.60;;;;;;;13.71;91.00;101341.00;4969398;28;20023;-66
2021/06/28 03:28:44;;;;;;;15.13;10.57;;;;;;;13.77;90.82;101350.22;4969210;28;20038;-66
2021/06/28 03:31:10;;;;;;;20.10;12.13;;;;;;;13.82;91.13;101355.09;4968526;28;20200;-66
2021/06/28 03:33:36;;;;;;;19.02;10.98;;;;;;;13.85;90.97;101355.56;4969431;28;20035;-66
2021/06/28 03:36:03;;;;;;;15.70;11.38;;;;;;;13.88;90.62;101363.31;4968219;28;20038;-66
2021/06/28 03:38:28;;;;;;;14.70;10.25;;;;;;;13.96;90.64;101356.25;4968452;28;20125;-66
2021/06/28 03:40:54;;;;;;;13.63;9.73;;;;;;;13.99;90.41;101347.84;4969456;28;20539;-66
2021/06/28 03:43:19;;;;;;;12.50;9.93;;;;;;;14.01;90.14;101351.22;4968086;28;20100;-66
2021/06/28 03:45:46;;;;;;;11.27;9.03;;;;;;;14.01;89.72;101348.53;4968388;28;20125;-66
2021/06/28 03:48:13;;;;;;;14.32;10.68;;;;;;;14.04;89.66;101353.53;4968142;28;20172;-66
2021/06/28 03:50:40;;;;;;;15.73;10.05;;;;;;;14.13;89.80;101355.19;4969253;28;20035;-66
2021/06/28 03:53:05;;;;;;;15.65;11.02;;;;;;;14.20;89.82;101355.38;4969285;28;20503;-66
2021/06/28 03:55:31;;;;;;;18.33;12.27;;;;;;;14.28;90.50;101360.69;4969073;28;20031;-66
2021/06/28 03:57:58;;;;;;;16.20;11.25;;;;;;;14.36;90.62;101364.22;4951832;28;20096;-64
2021/06/28 04:00:25;;;;;;;14.38;11.15;;;;;;;14.48;90.97;101372.72;4969176;28;20042;-64
2021/06/28 04:02:52;;;;;;;12.73;9.98;;;;;;;14.59;90.84;101366.19;4968217;28;20057;-64
2021/06/28 04:05:20;;;;;;;13.38;10.52;;;;;;;14.69;90.00;101363.28;4969045;28;20126;-64
2021/06/28 04:07:46;;;;;;;13.93;9.55;;;;;;;14.82;90.22;101368.09;4968708;28;20054;-64
2021/06/28 04:10:13;;;;;;;15.05;10.27;;;;;;;14.91;89.58;101370.59;4968031;28;20043;-66
2021/06/28 04:12:39;;;;;;;13.25;9.52;;;;;;;15.01;89.69;101377.56;4968105;28;20418;-64
2021/06/28 04:15:09;;;;;;;17.17;10.83;;;;;;;15.10;89.14;101373.81;4968946;28;20039;-65
2021/06/28 04:17:40;;;;;;;13.25;10.73;;;;;;;15.18;89.46;101371.94;4969840;28;20074;-64
2021/06/28 04:20:08;;;;;;;12.52;10.05;;;;;;;15.27;89.75;101366.53;4972295;28;20094;-64
2021/06/28 04:22:33;;;;;;;16.10;9.95;;;;;;;15.38;89.11;101366.94;4972174;28;20510;-64
2021/06/28 04:24:59;;;;;;;11.75;9.30;;;;;;;15.49;88.95;101376.44;4971983;28;20070;-64
2021/06/28 04:27:24;;;;;;;12.60;9.80;;;;;;;15.61;88.56;101375.00;4970941;28;20081;-66
2021/06/28 04:29:50;;;;;;;13.07;10.20;;;;;;;15.74;88.55;101377.13;4971035;28;20067;-66
2021/06/28 04:32:15;;;;;;;12.30;9.77;;;;;;;15.82;88.02;101377.03;4972120;28;20046;-66
2021/06/28 04:34:45;;;;;;;13.53;9.97;;;;;;;15.90;87.63;101378.84;4972015;28;20035;-64
2021/06/28 04:37:11;;;;;;;13.57;9.77;;;;;;;16.03;87.38;101379.03;4970580;28;20532;-66
2021/06/28 04:39:37;;;;;;;16.07;10.23;;;;;;;16.16;86.86;101374.91;4971888;28;20133;-65
2021/06/28 04:42:03;;;;;;;13.15;9.82;;;;;;;16.24;86.37;101375.63;4970756;28;20035;-65
2021/06/28 04:44:28;;;;;;;9.67;8.60;;;;;;;16.35;85.72;101368.94;4971949;28;20050;-65
2021/06/28 04:46:53;;;;;;;9.83;7.87;;;;;;;16.44;85.42;101369.72;4971567;28;20033;-65
2021/06/28 04:49:19;;;;;;;11.13;8.70;;;;;;;16.52;85.35;101368.78;4971805;28;20130;-65
2021/06/28 04:51:44;;;;;;;15.00;9.70;;;;;;;16.70;84.93;101363.00;4971734;28;20038;-64
2021/06/28 04:54:10;;;;;;;12.93;8.47;;;;;;;16.82;83.84;101356.97;4970716;28;20039;-65
2021/06/28 04:56:35;;;;;;;12.80;8.47;;;;;;;16.99;83.50;101362.97;4971331;28;20053;-67
2021/06/28 04:59:01;;;;;;;10.32;7.90;;;;;;;17.08;82.76;101361.81;4971605;28;20045;-67
2021/06/28 05:01:26;;;;;;;10.50;7.13;;;;;;;17.24;81.89;101370.72;4971574;28;20043;-65
2021/06/28 05:03:51;;;;;;;8.90;6.93;;;;;;;17.28;80.67;101364.75;4970728;28;20066;-67
2021/06/28 05:06:16;;;;;;;6.90;5.93;;;;;;;17.45;80.35;101354.53;4971326;28;20070;-67
2021/06/28 05:08:42;;;;;;;7.50;6.43;;;;;;;17.66;79.87;101361.78;4971387;28;20053;-65
2021/06/28 05:11:07;;;;;;;8.90;5.97;;;;;;;17.78;79.69;101355.88;4971354;28;20046;-65
2021/06/28 05:13:33;;;;;;;8.53;6.50;;;;;;;17.85;79.51;101354.09;4970591;28;20089;-65
2021/06/28 05:15:58;;;;;;;6.93;6.03;;;;;;;18.08;79.09;101357.38;4954016;28;20039;-65
2021/06/28 05:18:23;;;;;;;7.43;6.47;;;;;;;18.23;78.30;101338.34;4970561;28;20072;-65
2021/06/28 05:20:48;;;;;;;7.13;4.93;;;;;;;18.47;77.59;101349.69;4971365;28;20054;-65
2021/06/28 05:23:14;;;;;;;7.50;5.80;;;;;;;18.65;77.06;101354.56;4971128;28;20039;-65
2021/06/28 05:25:39;;;;;;;7.87;5.17;;;;;;;18.93;77.48;101347.22;4971316;28;20034;-65
2021/06/28 05:28:05;;;;;;;6.63;5.43;;;;;;;19.28;76.16;101343.56;4970926;28;20336;-65
2021/06/28 05:30:30;;;;;;;10.67;6.70;;;;;;;19.28;74.97;101343.56;4953472;28;20042;-65
2021/06/28 05:32:56;;;;;;;5.43;4.83;;;;;;;19.62;74.67;101342.56;4970906;28;20053;-66
2021/06/28 05:35:21;;;;;;;6.90;5.27;;;;;;;19.82;72.63;101334.47;4971017;28;20042;-65
2021/06/28 05:37:46;;;;;;;6.40;4.50;;;;;;;20.32;70.98;101337.53;4970292;28;20038;-65
2021/06/28 05:40:12;;;;;;;8.97;5.60;;;;;;;20.75;67.58;101342.41;4969530;28;20055;-66
2021/06/28 05:42:39;;;;;;;6.93;5.00;;;;;;;21.19;66.66;101342.56;4969516;28;20353;-65
2021/06/28 05:45:06;;;;;;;7.15;5.15;;;;;;;22.10;63.58;101333.09;4970914;28;20128;-65
2021/06/28 05:47:32;;;;;;;6.18;4.80;;;;;;;22.89;61.12;101342.22;4969616;28;20043;-65
2021/06/28 05:49:58;;;;;;;6.72;5.28;;;;;;;22.86;59.20;101333.72;4970037;28;20096;-65
2021/06/28 05:52:23;;;;;;;5.78;5.18;;;;;;;23.04;58.93;101343.75;4969683;28;20349;-65
2021/06/28 05:54:49;;;;;;;6.83;5.20;;;;;;;23.29;57.07;101351.75;4970832;28;20105;-66
2021/06/28 05:57:18;;;;;;;8.13;5.38;;;;;;;23.99;56.19;101351.06;4970299;28;20034;-65
2021/06/28 05:59:44;;;;;;;11.18;5.63;;;;;;;24.43;54.36;101352.34;4969900;28;20043;-66
2021/06/28 06:02:09;;;;;;;6.22;4.65;;;;;;;24.34;54.65;101347.50;4970754;28;20050;-66
2021/06/28 06:04:35;;;;;;;5.97;5.15;;;;;;;23.54;56.85;101352.41;4969848;28;20038;-66
2021/06/28 06:07:00;;;;;;;8.93;5.37;;;;;;;23.04;58.42;101339.16;4970264;28;20121;-66
2021/06/28 06:09:25;;;;;;;7.93;6.30;;;;;;;23.01;56.63;101345.03;4970551;28;20785;-66
2021/06/28 06:11:51;;;;;;;6.67;5.17;;;;;;;24.37;54.82;101345.13;4969652;28;20581;-66
2021/06/28 06:14:16;;;;;;;6.40;5.80;;;;;;;24.91;51.96;101344.88;4953556;28;20039;-66
2021/06/28 06:16:42;;;;;;;9.45;5.78;;;;;;;25.23;53.07;101344.41;4970182;28;20119;-66
2021/06/28 06:19:07;;;;;;;8.93;5.80;;;;;;;25.30;50.86;101346.97;4969416;28;20679;-66
2021/06/28 06:21:33;;;;;;;8.23;6.28;;;;;;;24.46;53.11;101340.09;4970342;28;20047;-66
2021/06/28 06:23:58;;;;;;;8.18;7.03;;;;;;;24.84;52.29;101347.75;4970270;28;20045;-66
2021/06/28 06:26:23;;;;;;;7.55;5.55;;;;;;;24.93;52.95;101350.09;4970072;28;20053;-66
2021/06/28 06:28:48;;;;;;;8.40;6.23;;;;;;;24.72;53.36;101344.22;4969307;28;20187;-66
2021/06/28 06:31:14;;;;;;;7.37;4.63;;;;;;;25.17;52.41;101354.38;4970331;28;20038;-66
2021/06/28 06:33:39;;;;;;;6.82;5.43;;;;;;;25.27;51.69;101354.59;4969325;28;20043;-67
2021/06/28 06:36:06;;;;;;;10.30;6.15;;;;;;;25.16;51.38;101354.63;4969795;28;20398;-66
2021/06/28 06:38:31;;;;;;;7.78;6.32;;;;;;;24.41;52.86;101359.94;4969218;28;20043;-66
2021/06/28 06:40:57;;;;;;;7.00;5.15;;;;;;;24.19;54.94;101358.91;4968134;28;20096;-66
2021/06/28 06:43:22;;;;;;;5.55;4.65;;;;;;;25.27;52.21;101365.53;4953107;28;20136;-66
2021/06/28 06:45:49;;;;;;;5.72;5.22;;;;;;;26.13;50.24;101364.50;4969055;28;20056;-66
2021/06/28 06:48:14;;;;;;;6.85;5.03;;;;;;;26.02;50.26;101366.25;4968996;28;20047;-67
2021/06/28 06:50:40;;;;;;;7.97;5.60;;;;;;;26.43;48.52;101366.78;4969862;28;20039;-67
2021/06/28 06:53:06;;;;;;;5.90;5.07;;;;;;;26.63;48.68;101369.00;4969889;28;20321;-67
2021/06/28 06:55:34;;;;;;;7.63;5.90;;;;;;;26.01;49.06;101369.22;4968956;28;20096;-67
2021/06/28 06:57:59;;;;;;;8.38;5.53;;;;;;;26.48;49.31;101366.88;4968712;28;20104;-67
2021/06/28 07:00:25;;;;;;;5.97;4.80;;;;;;;26.95;47.03;101365.56;4968854;28;20444;-67
2021/06/28 07:02:50;;;;;;;6.68;5.07;;;;;;;27.17;47.99;101363.59;4968843;28;20126;-67
2021/06/28 07:05:17;;;;;;;4.60;4.17;;;;;;;27.33;47.46;101367.34;4968698;28;20137;-67
2021/06/28 07:07:43;;;;;;;5.35;4.70;;;;;;;27.15;47.04;101364.94;4969449;28;20290;-67
2021/06/28 07:10:11;;;;;;;5.18;3.97;;;;;;;27.12;47.44;101363.53;4968760;28;20361;-67
2021/06/28 07:12:37;;;;;;;6.82;5.43;;;;;;;27.34;46.85;101371.72;4968471;28;20047;-67
2021/06/28 07:15:03;;;;;;;;;;;;;;;27.69;46.31;101370.41;4969498;28;20039;-67
2021/06/28 07:17:28;;;;;;;5.43;4.78;;;;;;;27.32;46.68;101371.19;4969320;28;19921;-67
2021/06/28 07:19:54;;;;;;;4.82;4.40;;;;;;;27.22;46.84;101370.25;4968569;28;20484;-67
2021/06/28 07:22:19;;;;;;;10.45;4.90;;;;;;;27.22;47.70;101367.50;4969508;28;20047;-67
2021/06/28 07:24:45;;;;;;;4.70;4.13;;;;;;;26.88;47.86;101370.41;4969545;28;20164;-67
2021/06/28 07:27:10;;;;;;;5.82;4.82;;;;;;;26.67;47.50;101366.63;4968261;28;20030;-67
2021/06/28 07:29:36;;;;;;;6.90;4.82;;;;;;;24.86;53.26;101372.06;4968576;28;20122;-66
2021/06/28 07:32:02;;;;;;;8.18;5.40;;;;;;;25.53;52.85;101374.16;4969426;28;20114;-67
2021/06/28 07:34:27;;;;;;;9.18;4.32;;;;;;;25.81;51.46;101366.97;4968183;28;20030;-67
2021/06/28 07:36:53;;;;;;;9.20;4.23;;;;;;;26.45;50.27;101378.31;4969098;28;20042;-67
2021/06/28 07:39:18;;;;;;;8.20;4.80;;;;;;;25.41;50.96;101378.88;4968463;28;20097;-66
2021/06/28 07:41:43;;;;;;;7.95;5.32;;;;;;;25.48;52.72;101374.09;4969267;28;20162;-67
2021/06/28 07:44:09;;;;;;;6.60;5.70;;;;;;;25.78;51.42;101381.13;4968474;28;20455;-66
2021/06/28 07:46:37;;;;;;;5.60;3.93;;;;;;;26.45;50.38;101380.25;4968151;28;20035;-67
2021/06/28 07:49:04;;;;;;;5.25;4.25;;;;;;;26.82;49.44;101371.44;4969172;28;20043;-67
2021/06/28 07:51:35;;;;;;;5.07;4.53;;;;;;;27.05;49.07;101370.31;4968318;28;20096;-67
2021/06/28 07:54:05;;;;;;;6.90;5.65;;;;;;;26.28;50.02;101374.81;4972377;28;20031;-67
2021/06/28 07:56:32;;;;;;;7.93;5.65;;;;;;;25.39;53.30;101376.38;4972339;28;20403;-66
2021/06/28 07:58:57;;;;;;;8.38;6.55;;;;;;;25.21;53.22;101363.75;4972445;28;20083;-67
2021/06/28 08:01:22;;;;;;;5.32;4.70;;;;;;;26.29;52.15;101369.09;4970300;28;20484;-67
2021/06/28 08:03:48;;;;;;;5.87;4.93;;;;;;;26.76;50.32;101356.00;4971461;28;20726;-67
2021/06/28 08:06:18;;;;;;;5.32;4.82;;;;;;;26.70;50.70;101355.13;4972150;28;20274;-67
2021/06/28 08:08:44;;;;;;;5.90;4.95;;;;;;;27.05;49.53;101351.16;4971526;28;20337;-67
2021/06/28 08:11:11;;;;;;;6.30;5.40;;;;;;;26.80;50.47;101341.53;4972442;28;20100;-67
2021/06/28 08:13:40;;;;;;;6.50;4.47;;;;;;;27.53;48.83;101343.94;4972403;28;20538;-67
2021/06/28 08:16:06;;;;;;;6.40;4.88;;;;;;;27.61;46.88;101334.41;4971018;28;20096;-67
2021/06/28 08:18:32;;;;;;;5.07;4.53;;;;;;;27.47;48.43;101337.59;4955416;28;20356;-67
2021/06/28 08:20:58;;;;;;;6.28;5.47;;;;;;;27.02;48.88;101337.94;4972257;28;20629;-67
2021/06/28 08:23:23;;;;;;;5.53;5.00;;;;;;;27.38;48.47;101343.81;4971304;28;20066;-67
2021/06/28 08:25:49;;;;;;;8.25;5.68;;;;;;;24.61;54.58;101332.28;4971154;28;20035;-67
2021/06/28 08:28:14;;;;;;;5.87;5.20;;;;;;;25.61;53.44;101329.19;4971118;28;20091;-67
2021/06/28 08:30:39;;;;;;;7.10;5.60;;;;;;;26.46;52.03;101318.94;4971021;28;20306;-67
2021/06/28 08:33:05;;;;;;;6.93;6.20;;;;;;;25.33;51.94;101327.34;4972111;28;20159;-67
2021/06/28 08:35:30;;;;;;;7.00;5.03;;;;;;;25.42;53.78;101320.41;4971953;28;20133;-67
2021/06/28 08:37:57;;;;;;;5.23;4.70;;;;;;;26.35;51.88;101312.50;4971777;28;20041;-67
2021/06/28 08:40:22;;;;;;;6.38;5.25;;;;;;;27.04;50.04;101314.69;4971993;28;20039;-67
2021/06/28 08:42:48;;;;;;;7.67;5.40;;;;;;;27.28;48.33;101325.38;4971947;28;20053;-67
2021/06/28 08:45:14;;;;;;;5.72;5.22;;;;;;;27.51;47.20;101318.69;4971826;28;20539;-67
2021/06/28 08:47:41;;;;;;;5.05;4.35;;;;;;;28.01;46.91;101314.69;4971587;28;20030;-67
2021/06/28 08:50:09;;;;;;;6.30;5.63;;;;;;;27.93;45.71;101327.00;4971896;28;20134;-67
2021/06/28 08:52:38;;;;;;;6.30;5.70;;;;;;;28.15;46.08;101320.53;4971752;28;20035;-67
2021/06/28 08:55:05;;;;;;;7.97;5.13;;;;;;;28.28;47.02;101321.94;4971628;28;20541;-67
2021/06/28 08:57:31;;;;;;;7.13;5.47;;;;;;;28.36;45.77;101318.72;4970416;28;20138;-67
2021/06/28 08:59:56;;;;;;;11.20;6.50;;;;;;;27.47;46.71;101323.06;4970590;28;20730;-67
2021/06/28 09:02:22;;;;;;;7.38;6.10;;;;;;;27.04;47.37;101319.34;4971678;28;20051;-67
2021/06/28 09:05:03;;;;;;;6.83;5.27;;;;;;;27.93;45.72;101324.25;4969670;28;20379;-67
2021/06/28 09:07:29;;;;;;;9.60;5.10;;;;;;;27.38;48.56;101313.66;4970268;28;20278;-67
2021/06/28 09:09:54;;;;;;;6.67;5.57;;;;;;;28.31;45.42;101308.53;4971620;28;20042;-67
2021/06/28 09:12:20;;;;;;;7.72;5.25;;;;;;;28.88;43.94;101316.97;4971432;28;20092;-67
2021/06/28 09:14:48;;;;;;;7.10;5.28;;;;;;;29.51;42.83;101308.53;4970767;28;20038;-67
2021/06/28 09:17:28;;;;;;;7.00;5.72;;;;;;;29.49;41.60;101314.31;4970367;28;20183;-67
2021/06/28 09:20:22;;;;;;;6.15;5.20;;;;;;;29.85;42.84;101312.38;4971575;28;20031;-68
2021/06/28 09:22:50;;;;;;;6.05;5.45;;;;;;;30.06;41.44;101312.31;4970511;28;20053;-69
2021/06/28 09:25:37;;;;;;;10.93;6.07;;;;;;;30.61;40.51;101302.22;4970477;28;20039;-69
2021/06/28 09:28:03;;;;;;;7.88;7.18;;;;;;;30.97;38.44;101304.75;4970053;28;20031;-69
2021/06/28 09:30:29;;;;;;;7.10;6.40;;;;;;;30.00;40.69;101302.44;4971222;28;20039;-69
2021/06/28 09:33:00;;;;;;;13.18;7.82;;;;;;;29.43;43.28;101305.25;4970261;28;20030;-69
2021/06/28 09:35:38;;;;;;;6.45;5.85;;;;;;;29.45;42.42;101313.19;4970918;28;20038;-68
2021/06/28 09:38:28;;;;;;;8.30;5.70;;;;;;;28.61;43.24;101305.09;4969950;28;20039;-68
2021/06/28 09:40:54;;;;;;;8.77;5.13;;;;;;;29.35;42.33;101308.53;4970085;28;20039;-68
2021/06/28 09:43:27;;;;;;;7.13;5.72;;;;;;;28.97;42.67;101302.44;4970925;28;20092;-68
2021/06/28 09:45:56;;;;;;;6.93;4.88;;;;;;;28.58;44.29;101304.81;4970638;28;20160;-68
2021/06/28 09:48:29;;;;;;;5.22;4.63;;;;;;;29.06;43.61;101302.72;4970901;28;20038;-68
2021/06/28 09:51:17;;;;;;;6.00;4.95;;;;;;;28.43;42.31;101297.31;4970891;28;20038;-68
2021/06/28 09:53:43;;;;;;;5.90;4.50;;;;;;;29.28;39.53;101302.50;4969999;28;20046;-69
2021/06/28 09:56:27;;;;;;;4.72;4.30;;;;;;;29.56;38.23;101303.03;4969540;28;20046;-68
2021/06/28 09:58:52;;;;;;;6.15;4.75;;;;;;;29.52;40.88;101313.75;4969885;28;20350;-68
2021/06/28 10:01:23;;;;;;;5.20;4.57;;;;;;;30.30;40.13;101312.56;4969868;28;20038;-69
2021/06/28 10:03:51;;;;;;;4.63;4.18;;;;;;;30.89;38.72;101302.63;4969769;28;20381;-68
2021/06/28 10:08:50;;;;;;;4.80;4.07;;;;;;;29.55;38.16;101302.22;4970533;28;20069;-69
2021/06/28 10:11:15;;;;;;;4.30;3.72;;;;;;;30.39;38.19;101296.25;4970671;28;20039;-69
2021/06/28 10:13:41;;;;;;;6.70;4.40;;;;;;;29.82;39.44;101303.84;4969586;28;20035;-68
2021/06/28 10:16:08;;;;;;;5.82;4.15;;;;;;;30.29;37.90;101300.69;4969851;28;20124;-68
2021/06/28 10:18:34;;;;;;;6.85;3.80;;;;;;;29.67;39.37;101297.28;4969466;28;20030;-69
2021/06/28 10:20:59;;;;;;;4.40;4.00;;;;;;;30.75;38.55;101291.38;4970376;28;20496;-69
2021/06/28 10:23:24;;;;;;;;;;;;;;;29.85;37.80;101298.63;4969812;28;20066;-69
2021/06/28 10:25:50;;;;;;;3.87;3.47;;;;;;;31.04;36.58;101290.66;4970354;28;19925;-69
2021/06/28 10:28:15;;;;;;;3.83;3.53;;;;;;;30.99;36.46;101287.94;4969312;28;20278;-69
2021/06/28 10:30:41;;;;;;;;;;;;;;;29.68;39.93;101295.34;4953767;28;20047;-69
2021/06/28 10:33:10;;;;;;;;;;;;;;;28.56;39.47;101287.78;4953649;28;19918;-68
2021/06/28 10:35:39;;;;;;;4.00;3.60;;;;;;;29.36;40.80;101292.84;4969218;28;19918;-68
2021/06/28 10:38:07;;;;;;;4.18;3.78;;;;;;;29.31;39.98;101288.19;4968990;28;20039;-68
2021/06/28 10:40:52;;;;;;;4.10;3.40;;;;;;;30.59;37.96;101287.88;4969337;28;20095;-69
2021/06/28 10:43:37;;;;;;;3.97;3.58;;;;;;;31.66;36.01;101278.00;4970073;28;20593;-69
2021/06/28 10:46:04;;;;;;;;;;;;;;;31.77;36.07;101287.00;4969355;28;20035;-68
2021/06/28 10:48:31;;;;;;;3.97;3.45;;;;;;;30.98;35.92;101284.38;4970034;28;19918;-69
2021/06/28 10:51:02;;;;;;;3.97;3.58;;;;;;;31.38;35.86;101287.91;4969965;28;20039;-68
2021/06/28 10:53:34;;;;;;;3.58;3.13;;;;;;;31.10;36.53;101278.50;4969963;28;20118;-68
2021/06/28 10:56:25;;;;;;;3.92;3.53;;;;;;;31.85;33.91;101272.56;4952636;28;20046;-69
2021/06/28 10:58:59;;;;;;;3.65;3.35;;;;;;;32.12;34.26;101276.69;4969701;28;20539;-69
2021/06/28 11:01:34;;;;;;;4.25;3.38;;;;;;;32.71;33.63;101285.59;4968952;28;20543;-69
2021/06/28 11:04:24;;;;;;;5.10;3.22;;;;;;;31.99;34.34;101272.72;4968989;28;20074;-69
2021/06/28 11:06:52;;;;;;;3.58;3.13;;;;;;;32.21;33.84;101266.63;4969547;28;20035;-69
2021/06/28 11:10:08;;;;;;;3.45;3.17;;;;;;;32.53;33.95;101267.91;4968844;28;20353;-69
2021/06/28 11:12:34;;;;;;;6.40;3.55;;;;;;;32.25;34.98;101266.88;5016072;28;20147;-68
2021/06/28 11:15:18;;;;;;;;;;;;;;;32.22;33.35;101257.25;4981875;28;20368;-69
2021/06/28 11:17:51;;;;;;;4.50;3.37;;;;;;;32.11;34.31;101255.72;4969436;28;19926;-69
2021/06/28 11:20:37;;;;;;;3.72;3.33;;;;;;;32.12;34.31;101258.19;4968631;28;20058;-69
2021/06/28 11:23:07;;;;;;;4.78;4.32;;;;;;;30.35;35.53;101246.44;4968695;28;20053;-69
2021/06/28 11:25:49;;;;;;;4.00;3.40;;;;;;;31.64;34.89;101241.59;4969520;28;20418;-69